sensor_id;sensor_type;location;lat;lon;timestamp;P1;durP1;ratioP1;P2;durP2;ratioP2
25301;SDS011;13243;50.888;4.724;2023-05-16T00:04:13;9.18;;;1.98;;
25301;SDS011;13243;50.888;4.724;2023-05-16T00:09:16;14.38;;;2.20;;
25301;SDS011;13243;50.888;4.724;2023-05-16T00:14:18;17.58;;;3.05;;
25301;SDS011;13243;50.888;4.724;2023-05-16T00:19:20;9.80;;;2.25;;
25301;SDS011;13243;50.888;4.724;2023-05-16T00:24:22;15.25;;;2.97;;
25301;SDS011;13243;50.888;4.724;2023-05-16T00:29:24;17.15;;;2.45;;
25301;SDS011;13243;50.888;4.724;2023-05-16T00:34:26;15.15;;;3.08;;
25301;SDS011;13243;50.888;4.724;2023-05-16T00:39:28;12.93;;;2.38;;
25301;SDS011;13243;50.888;4.724;2023-05-16T00:44:31;12.63;;;2.13;;
25301;SDS011;13243;50.888;4.724;2023-05-16T00:49:32;20.25;;;2.97;;
25301;SDS011;13243;50.888;4.724;2023-05-16T00:54:34;24.67;;;3.50;;
25301;SDS011;13243;50.888;4.724;2023-05-16T00:59:37;16.38;;;2.72;;
25301;SDS011;13243;50.888;4.724;2023-05-16T01:04:39;24.15;;;2.80;;
25301;SDS011;13243;50.888;4.724;2023-05-16T01:09:41;14.35;;;2.47;;
25301;SDS011;13243;50.888;4.724;2023-05-16T01:15:03;16.67;;;2.97;;
25301;SDS011;13243;50.888;4.724;2023-05-16T01:30:31;12.57;;;2.83;;
25301;SDS011;13243;50.888;4.724;2023-05-16T01:35:42;20.13;;;2.78;;
25301;SDS011;13243;50.888;4.724;2023-05-16T01:46:14;8.45;;;1.88;;
25301;SDS011;13243;50.888;4.724;2023-05-16T01:51:21;12.68;;;2.05;;
25301;SDS011;13243;50.888;4.724;2023-05-16T01:56:28;7.72;;;1.90;;
25301;SDS011;13243;50.888;4.724;2023-05-16T02:01:31;16.88;;;2.38;;
25301;SDS011;13243;50.888;4.724;2023-05-16T02:06:33;16.35;;;1.85;;
25301;SDS011;13243;50.888;4.724;2023-05-16T02:11:35;12.77;;;2.05;;
25301;SDS011;13243;50.888;4.724;2023-05-16T02:16:37;22.45;;;3.17;;
25301;SDS011;13243;50.888;4.724;2023-05-16T02:21:39;7.05;;;1.75;;
25301;SDS011;13243;50.888;4.724;2023-05-16T02:26:41;12.55;;;2.85;;
25301;SDS011;13243;50.888;4.724;2023-05-16T02:31:43;20.35;;;2.80;;
25301;SDS011;13243;50.888;4.724;2023-05-16T02:36:45;16.65;;;2.38;;
25301;SDS011;13243;50.888;4.724;2023-05-16T02:41:47;10.27;;;2.40;;
25301;SDS011;13243;50.888;4.724;2023-05-16T02:46:48;8.10;;;2.03;;
25301;SDS011;13243;50.888;4.724;2023-05-16T02:51:50;11.88;;;2.33;;
25301;SDS011;13243;50.888;4.724;2023-05-16T02:56:52;11.48;;;1.70;;
25301;SDS011;13243;50.888;4.724;2023-05-16T03:01:54;18.17;;;2.47;;
25301;SDS011;13243;50.888;4.724;2023-05-16T03:06:56;10.15;;;2.45;;
25301;SDS011;13243;50.888;4.724;2023-05-16T03:11:58;15.48;;;2.55;;
25301;SDS011;13243;50.888;4.724;2023-05-16T03:17:00;10.23;;;1.92;;
25301;SDS011;13243;50.888;4.724;2023-05-16T03:22:02;16.35;;;2.00;;
25301;SDS011;13243;50.888;4.724;2023-05-16T03:27:04;14.82;;;2.00;;
25301;SDS011;13243;50.888;4.724;2023-05-16T03:32:07;16.38;;;2.17;;
25301;SDS011;13243;50.888;4.724;2023-05-16T03:37:09;6.85;;;2.33;;
25301;SDS011;13243;50.888;4.724;2023-05-16T03:42:11;6.68;;;1.92;;
25301;SDS011;13243;50.888;4.724;2023-05-16T03:47:13;8.73;;;2.00;;
25301;SDS011;13243;50.888;4.724;2023-05-16T03:52:16;19.98;;;2.85;;
25301;SDS011;13243;50.888;4.724;2023-05-16T03:57:18;16.35;;;2.25;;
25301;SDS011;13243;50.888;4.724;2023-05-16T04:02:19;18.33;;;3.25;;
25301;SDS011;13243;50.888;4.724;2023-05-16T04:07:22;12.30;;;2.30;;
25301;SDS011;13243;50.888;4.724;2023-05-16T04:12:24;12.25;;;2.63;;
25301;SDS011;13243;50.888;4.724;2023-05-16T04:17:26;15.43;;;2.97;;
25301;SDS011;13243;50.888;4.724;2023-05-16T04:22:27;10.65;;;2.35;;
25301;SDS011;13243;50.888;4.724;2023-05-16T04:27:29;7.38;;;2.28;;
25301;SDS011;13243;50.888;4.724;2023-05-16T04:32:31;14.73;;;2.35;;
25301;SDS011;13243;50.888;4.724;2023-05-16T04:37:35;11.63;;;2.67;;
25301;SDS011;13243;50.888;4.724;2023-05-16T04:42:38;10.38;;;2.65;;
25301;SDS011;13243;50.888;4.724;2023-05-16T04:47:40;13.52;;;2.45;;
25301;SDS011;13243;50.888;4.724;2023-05-16T04:52:42;5.85;;;2.08;;
25301;SDS011;13243;50.888;4.724;2023-05-16T04:57:44;14.40;;;2.75;;
25301;SDS011;13243;50.888;4.724;2023-05-16T05:02:47;13.38;;;2.38;;
25301;SDS011;13243;50.888;4.724;2023-05-16T05:07:48;10.18;;;2.58;;
25301;SDS011;13243;50.888;4.724;2023-05-16T05:12:50;11.18;;;2.45;;
25301;SDS011;13243;50.888;4.724;2023-05-16T05:17:52;21.60;;;3.20;;
25301;SDS011;13243;50.888;4.724;2023-05-16T05:22:54;14.48;;;3.03;;
25301;SDS011;13243;50.888;4.724;2023-05-16T05:27:56;13.65;;;2.92;;
25301;SDS011;13243;50.888;4.724;2023-05-16T05:32:58;11.60;;;2.30;;
25301;SDS011;13243;50.888;4.724;2023-05-16T05:37:59;17.35;;;4.25;;
25301;SDS011;13243;50.888;4.724;2023-05-16T05:43:02;7.40;;;2.35;;
25301;SDS011;13243;50.888;4.724;2023-05-16T05:48:04;12.88;;;2.95;;
25301;SDS011;13243;50.888;4.724;2023-05-16T05:53:06;11.75;;;2.45;;
25301;SDS011;13243;50.888;4.724;2023-05-16T05:58:08;18.20;;;2.53;;
25301;SDS011;13243;50.888;4.724;2023-05-16T06:03:10;18.40;;;2.50;;
25301;SDS011;13243;50.888;4.724;2023-05-16T06:08:12;12.75;;;2.70;;
25301;SDS011;13243;50.888;4.724;2023-05-16T06:13:14;11.02;;;2.47;;
25301;SDS011;13243;50.888;4.724;2023-05-16T06:18:16;26.13;;;2.78;;
25301;SDS011;13243;50.888;4.724;2023-05-16T06:23:18;15.02;;;2.42;;
25301;SDS011;13243;50.888;4.724;2023-05-16T06:28:21;9.75;;;2.17;;
25301;SDS011;13243;50.888;4.724;2023-05-16T06:33:24;12.02;;;2.25;;
25301;SDS011;13243;50.888;4.724;2023-05-16T06:38:26;13.77;;;1.92;;
25301;SDS011;13243;50.888;4.724;2023-05-16T06:43:28;7.78;;;1.70;;
25301;SDS011;13243;50.888;4.724;2023-05-16T06:48:30;6.72;;;1.58;;
25301;SDS011;13243;50.888;4.724;2023-05-16T06:53:32;14.70;;;2.03;;
25301;SDS011;13243;50.888;4.724;2023-05-16T06:58:34;10.20;;;3.13;;
25301;SDS011;13243;50.888;4.724;2023-05-16T07:03:37;12.93;;;1.75;;
25301;SDS011;13243;50.888;4.724;2023-05-16T07:08:38;11.23;;;1.80;;
25301;SDS011;13243;50.888;4.724;2023-05-16T07:13:41;15.60;;;2.10;;
25301;SDS011;13243;50.888;4.724;2023-05-16T07:18:42;5.00;;;1.40;;
25301;SDS011;13243;50.888;4.724;2023-05-16T07:23:44;11.35;;;1.92;;
25301;SDS011;13243;50.888;4.724;2023-05-16T07:28:48;12.90;;;2.05;;
25301;SDS011;13243;50.888;4.724;2023-05-16T07:33:53;5.43;;;1.27;;
25301;SDS011;13243;50.888;4.724;2023-05-16T07:38:55;5.95;;;1.33;;
25301;SDS011;13243;50.888;4.724;2023-05-16T07:43:56;5.22;;;1.30;;
25301;SDS011;13243;50.888;4.724;2023-05-16T07:48:58;8.98;;;1.50;;
25301;SDS011;13243;50.888;4.724;2023-05-16T07:54:01;6.75;;;1.25;;
25301;SDS011;13243;50.888;4.724;2023-05-16T07:59:03;5.25;;;1.08;;
25301;SDS011;13243;50.888;4.724;2023-05-16T08:04:06;6.93;;;0.98;;
25301;SDS011;13243;50.888;4.724;2023-05-16T08:09:08;7.70;;;1.48;;
25301;SDS011;13243;50.888;4.724;2023-05-16T08:14:10;5.07;;;1.55;;
25301;SDS011;13243;50.888;4.724;2023-05-16T08:19:12;12.82;;;1.35;;
25301;SDS011;13243;50.888;4.724;2023-05-16T08:24:14;4.93;;;0.82;;
25301;SDS011;13243;50.888;4.724;2023-05-16T08:29:18;9.45;;;1.33;;
25301;SDS011;13243;50.888;4.724;2023-05-16T08:34:20;6.20;;;1.27;;
25301;SDS011;13243;50.888;4.724;2023-05-16T08:39:22;10.70;;;1.55;;
25301;SDS011;13243;50.888;4.724;2023-05-16T08:44:23;4.15;;;1.48;;
25301;SDS011;13243;50.888;4.724;2023-05-16T08:49:26;5.55;;;1.23;;
25301;SDS011;13243;50.888;4.724;2023-05-16T08:54:29;7.00;;;1.15;;
25301;SDS011;13243;50.888;4.724;2023-05-16T08:59:31;6.78;;;1.35;;
25301;SDS011;13243;50.888;4.724;2023-05-16T09:04:33;4.97;;;1.30;;
25301;SDS011;13243;50.888;4.724;2023-05-16T09:09:37;1.38;;;0.85;;
25301;SDS011;13243;50.888;4.724;2023-05-16T09:14:39;6.40;;;1.10;;
25301;SDS011;13243;50.888;4.724;2023-05-16T09:19:42;5.90;;;1.48;;
25301;SDS011;13243;50.888;4.724;2023-05-16T09:24:44;5.18;;;1.67;;
25301;SDS011;13243;50.888;4.724;2023-05-16T09:29:49;7.45;;;1.67;;
25301;SDS011;13243;50.888;4.724;2023-05-16T09:34:52;9.32;;;1.45;;
25301;SDS011;13243;50.888;4.724;2023-05-16T09:39:56;7.40;;;1.42;;
25301;SDS011;13243;50.888;4.724;2023-05-16T09:44:58;6.25;;;1.70;;
25301;SDS011;13243;50.888;4.724;2023-05-16T09:50:03;3.97;;;1.20;;
25301;SDS011;13243;50.888;4.724;2023-05-16T09:55:06;4.80;;;1.10;;
25301;SDS011;13243;50.888;4.724;2023-05-16T10:00:09;10.38;;;1.50;;
25301;SDS011;13243;50.888;4.724;2023-05-16T10:05:12;7.53;;;1.52;;
25301;SDS011;13243;50.888;4.724;2023-05-16T10:10:13;3.78;;;1.70;;
25301;SDS011;13243;50.888;4.724;2023-05-16T10:15:16;5.03;;;1.08;;
25301;SDS011;13243;50.888;4.724;2023-05-16T10:20:19;4.03;;;1.40;;
25301;SDS011;13243;50.888;4.724;2023-05-16T10:25:24;4.35;;;0.93;;
25301;SDS011;13243;50.888;4.724;2023-05-16T10:30:33;6.72;;;1.40;;
25301;SDS011;13243;50.888;4.724;2023-05-16T10:35:35;4.43;;;1.35;;
25301;SDS011;13243;50.888;4.724;2023-05-16T10:40:38;6.85;;;1.35;;
25301;SDS011;13243;50.888;4.724;2023-05-16T10:45:41;2.17;;;0.70;;
25301;SDS011;13243;50.888;4.724;2023-05-16T10:50:43;8.32;;;1.40;;
25301;SDS011;13243;50.888;4.724;2023-05-16T10:55:50;3.78;;;1.00;;
25301;SDS011;13243;50.888;4.724;2023-05-16T11:06:21;10.13;;;1.13;;
25301;SDS011;13243;50.888;4.724;2023-05-16T11:16:50;13.02;;;2.15;;
25301;SDS011;13243;50.888;4.724;2023-05-16T11:27:22;8.55;;;1.35;;
25301;SDS011;13243;50.888;4.724;2023-05-16T11:32:26;3.42;;;0.73;;
25301;SDS011;13243;50.888;4.724;2023-05-16T11:37:28;7.47;;;1.02;;
25301;SDS011;13243;50.888;4.724;2023-05-16T11:42:30;3.85;;;1.42;;
25301;SDS011;13243;50.888;4.724;2023-05-16T11:47:35;8.82;;;1.30;;
25301;SDS011;13243;50.888;4.724;2023-05-16T11:52:39;4.80;;;1.02;;
25301;SDS011;13243;50.888;4.724;2023-05-16T11:57:46;6.25;;;0.98;;
25301;SDS011;13243;50.888;4.724;2023-05-16T12:02:48;3.33;;;0.93;;
25301;SDS011;13243;50.888;4.724;2023-05-16T12:07:50;6.15;;;1.15;;
25301;SDS011;13243;50.888;4.724;2023-05-16T12:12:54;5.45;;;0.98;;
25301;SDS011;13243;50.888;4.724;2023-05-16T12:17:56;3.95;;;1.05;;
25301;SDS011;13243;50.888;4.724;2023-05-16T12:22:59;4.03;;;1.05;;
25301;SDS011;13243;50.888;4.724;2023-05-16T12:28:01;7.53;;;1.55;;
25301;SDS011;13243;50.888;4.724;2023-05-16T12:33:11;4.53;;;1.42;;
25301;SDS011;13243;50.888;4.724;2023-05-16T12:38:14;5.43;;;1.40;;
25301;SDS011;13243;50.888;4.724;2023-05-16T12:43:18;4.22;;;1.10;;
25301;SDS011;13243;50.888;4.724;2023-05-16T12:48:21;3.13;;;0.93;;
25301;SDS011;13243;50.888;4.724;2023-05-16T12:53:24;3.17;;;0.98;;
25301;SDS011;13243;50.888;4.724;2023-05-16T12:58:25;3.33;;;1.10;;
25301;SDS011;13243;50.888;4.724;2023-05-16T13:03:31;5.13;;;1.20;;
25301;SDS011;13243;50.888;4.724;2023-05-16T13:08:36;4.82;;;1.08;;
25301;SDS011;13243;50.888;4.724;2023-05-16T13:13:38;1.35;;;0.85;;
25301;SDS011;13243;50.888;4.724;2023-05-16T13:18:40;3.33;;;1.13;;
25301;SDS011;13243;50.888;4.724;2023-05-16T13:23:42;3.30;;;1.10;;
25301;SDS011;13243;50.888;4.724;2023-05-16T13:28:43;16.95;;;1.73;;
25301;SDS011;13243;50.888;4.724;2023-05-16T13:33:45;6.35;;;0.98;;
25301;SDS011;13243;50.888;4.724;2023-05-16T13:38:47;4.88;;;1.00;;
25301;SDS011;13243;50.888;4.724;2023-05-16T13:43:49;4.35;;;1.05;;
25301;SDS011;13243;50.888;4.724;2023-05-16T13:48:51;4.90;;;1.30;;
25301;SDS011;13243;50.888;4.724;2023-05-16T13:53:53;6.63;;;1.45;;
25301;SDS011;13243;50.888;4.724;2023-05-16T13:58:54;6.85;;;1.83;;
25301;SDS011;13243;50.888;4.724;2023-05-16T14:04:06;2.65;;;0.85;;
25301;SDS011;13243;50.888;4.724;2023-05-16T14:09:08;4.20;;;1.25;;
25301;SDS011;13243;50.888;4.724;2023-05-16T14:14:11;6.10;;;1.48;;
25301;SDS011;13243;50.888;4.724;2023-05-16T14:19:12;5.18;;;1.10;;
25301;SDS011;13243;50.888;4.724;2023-05-16T14:24:19;6.18;;;1.48;;
25301;SDS011;13243;50.888;4.724;2023-05-16T14:29:21;4.18;;;1.10;;
25301;SDS011;13243;50.888;4.724;2023-05-16T14:34:25;2.35;;;0.82;;
25301;SDS011;13243;50.888;4.724;2023-05-16T14:39:27;5.57;;;1.20;;
25301;SDS011;13243;50.888;4.724;2023-05-16T14:44:28;3.45;;;1.48;;
25301;SDS011;13243;50.888;4.724;2023-05-16T14:49:30;4.63;;;1.25;;
25301;SDS011;13243;50.888;4.724;2023-05-16T14:54:32;4.72;;;1.08;;
25301;SDS011;13243;50.888;4.724;2023-05-16T14:59:34;5.35;;;1.05;;
25301;SDS011;13243;50.888;4.724;2023-05-16T15:04:36;10.75;;;1.25;;
25301;SDS011;13243;50.888;4.724;2023-05-16T15:09:38;9.57;;;1.60;;
25301;SDS011;13243;50.888;4.724;2023-05-16T15:14:40;3.65;;;0.95;;
25301;SDS011;13243;50.888;4.724;2023-05-16T15:19:42;5.18;;;0.90;;
25301;SDS011;13243;50.888;4.724;2023-05-16T15:24:44;2.78;;;0.90;;
25301;SDS011;13243;50.888;4.724;2023-05-16T15:29:46;10.18;;;1.10;;
25301;SDS011;13243;50.888;4.724;2023-05-16T15:34:48;3.13;;;0.73;;
25301;SDS011;13243;50.888;4.724;2023-05-16T15:39:50;3.33;;;1.05;;
25301;SDS011;13243;50.888;4.724;2023-05-16T15:44:52;4.28;;;1.20;;
25301;SDS011;13243;50.888;4.724;2023-05-16T15:49:53;3.20;;;0.90;;
25301;SDS011;13243;50.888;4.724;2023-05-16T15:54:55;3.63;;;0.90;;
25301;SDS011;13243;50.888;4.724;2023-05-16T15:59:57;5.28;;;1.02;;
25301;SDS011;13243;50.888;4.724;2023-05-16T16:04:59;3.75;;;0.90;;
25301;SDS011;13243;50.888;4.724;2023-05-16T16:10:01;2.83;;;0.90;;
25301;SDS011;13243;50.888;4.724;2023-05-16T16:15:03;4.50;;;0.75;;
25301;SDS011;13243;50.888;4.724;2023-05-16T16:20:08;2.15;;;0.70;;
25301;SDS011;13243;50.888;4.724;2023-05-16T16:25:11;2.55;;;0.70;;
25301;SDS011;13243;50.888;4.724;2023-05-16T16:30:12;3.60;;;1.10;;
25301;SDS011;13243;50.888;4.724;2023-05-16T16:35:14;3.58;;;0.90;;
25301;SDS011;13243;50.888;4.724;2023-05-16T16:40:16;2.15;;;1.00;;
25301;SDS011;13243;50.888;4.724;2023-05-16T16:45:18;3.20;;;0.85;;
25301;SDS011;13243;50.888;4.724;2023-05-16T16:50:22;3.40;;;1.10;;
25301;SDS011;13243;50.888;4.724;2023-05-16T16:55:25;2.38;;;0.70;;
25301;SDS011;13243;50.888;4.724;2023-05-16T17:00:27;1.80;;;0.93;;
25301;SDS011;13243;50.888;4.724;2023-05-16T17:05:29;5.35;;;1.08;;
25301;SDS011;13243;50.888;4.724;2023-05-16T17:10:31;2.33;;;0.90;;
25301;SDS011;13243;50.888;4.724;2023-05-16T17:15:33;2.35;;;0.77;;
25301;SDS011;13243;50.888;4.724;2023-05-16T17:20:35;1.85;;;0.77;;
25301;SDS011;13243;50.888;4.724;2023-05-16T17:25:37;3.58;;;0.77;;
25301;SDS011;13243;50.888;4.724;2023-05-16T17:30:39;5.00;;;1.38;;
25301;SDS011;13243;50.888;4.724;2023-05-16T17:35:41;3.08;;;0.68;;
25301;SDS011;13243;50.888;4.724;2023-05-16T17:40:43;3.45;;;1.00;;
25301;SDS011;13243;50.888;4.724;2023-05-16T17:45:45;3.65;;;0.77;;
25301;SDS011;13243;50.888;4.724;2023-05-16T17:50:48;3.30;;;0.88;;
25301;SDS011;13243;50.888;4.724;2023-05-16T17:55:50;3.85;;;1.30;;
25301;SDS011;13243;50.888;4.724;2023-05-16T18:00:52;3.60;;;1.25;;
25301;SDS011;13243;50.888;4.724;2023-05-16T18:05:54;2.83;;;0.88;;
25301;SDS011;13243;50.888;4.724;2023-05-16T18:10:57;2.22;;;0.82;;
25301;SDS011;13243;50.888;4.724;2023-05-16T18:15:59;3.67;;;0.60;;
25301;SDS011;13243;50.888;4.724;2023-05-16T18:21:01;7.97;;;0.98;;
25301;SDS011;13243;50.888;4.724;2023-05-16T18:26:03;2.25;;;0.70;;
25301;SDS011;13243;50.888;4.724;2023-05-16T18:31:05;2.30;;;0.60;;
25301;SDS011;13243;50.888;4.724;2023-05-16T18:36:09;11.32;;;0.88;;
25301;SDS011;13243;50.888;4.724;2023-05-16T18:41:11;5.72;;;1.20;;
25301;SDS011;13243;50.888;4.724;2023-05-16T18:46:13;2.28;;;0.80;;
25301;SDS011;13243;50.888;4.724;2023-05-16T18:51:15;1.98;;;1.00;;
25301;SDS011;13243;50.888;4.724;2023-05-16T18:56:17;5.53;;;1.20;;
25301;SDS011;13243;50.888;4.724;2023-05-16T19:01:18;2.80;;;1.00;;
25301;SDS011;13243;50.888;4.724;2023-05-16T19:06:22;5.07;;;1.15;;
25301;SDS011;13243;50.888;4.724;2023-05-16T19:11:24;2.83;;;1.35;;
25301;SDS011;13243;50.888;4.724;2023-05-16T19:16:26;2.55;;;0.90;;
25301;SDS011;13243;50.888;4.724;2023-05-16T19:21:28;4.32;;;1.10;;
25301;SDS011;13243;50.888;4.724;2023-05-16T19:26:31;3.35;;;1.15;;
25301;SDS011;13243;50.888;4.724;2023-05-16T19:31:33;7.53;;;1.50;;
25301;SDS011;13243;50.888;4.724;2023-05-16T19:36:35;3.67;;;1.10;;
25301;SDS011;13243;50.888;4.724;2023-05-16T19:41:38;4.35;;;1.23;;
25301;SDS011;13243;50.888;4.724;2023-05-16T19:46:42;8.65;;;1.45;;
25301;SDS011;13243;50.888;4.724;2023-05-16T19:51:44;3.78;;;1.30;;
25301;SDS011;13243;50.888;4.724;2023-05-16T19:56:47;7.32;;;1.85;;
25301;SDS011;13243;50.888;4.724;2023-05-16T20:01:49;3.55;;;1.45;;
25301;SDS011;13243;50.888;4.724;2023-05-16T20:06:51;2.97;;;1.50;;
25301;SDS011;13243;50.888;4.724;2023-05-16T20:11:54;6.47;;;2.20;;
25301;SDS011;13243;50.888;4.724;2023-05-16T20:16:57;3.45;;;1.55;;
25301;SDS011;13243;50.888;4.724;2023-05-16T20:21:59;5.60;;;1.92;;
25301;SDS011;13243;50.888;4.724;2023-05-16T20:27:01;8.60;;;1.85;;
25301;SDS011;13243;50.888;4.724;2023-05-16T20:32:04;9.38;;;2.40;;
25301;SDS011;13243;50.888;4.724;2023-05-16T20:37:07;6.10;;;2.42;;
25301;SDS011;13243;50.888;4.724;2023-05-16T20:42:08;7.38;;;2.70;;
25301;SDS011;13243;50.888;4.724;2023-05-16T20:47:11;7.05;;;2.33;;
25301;SDS011;13243;50.888;4.724;2023-05-16T20:52:13;5.13;;;2.40;;
25301;SDS011;13243;50.888;4.724;2023-05-16T20:57:15;10.50;;;2.97;;
25301;SDS011;13243;50.888;4.724;2023-05-16T21:02:17;6.22;;;2.92;;
25301;SDS011;13243;50.888;4.724;2023-05-16T21:07:19;6.45;;;2.58;;
25301;SDS011;13243;50.888;4.724;2023-05-16T21:12:21;10.38;;;2.60;;
25301;SDS011;13243;50.888;4.724;2023-05-16T21:17:24;7.90;;;2.90;;
25301;SDS011;13243;50.888;4.724;2023-05-16T21:22:26;6.97;;;2.72;;
25301;SDS011;13243;50.888;4.724;2023-05-16T21:27:28;6.70;;;2.67;;
25301;SDS011;13243;50.888;4.724;2023-05-16T21:32:30;11.32;;;3.70;;
25301;SDS011;13243;50.888;4.724;2023-05-16T21:37:33;10.63;;;2.40;;
25301;SDS011;13243;50.888;4.724;2023-05-16T21:42:35;12.60;;;3.00;;
25301;SDS011;13243;50.888;4.724;2023-05-16T21:47:36;13.35;;;2.83;;
25301;SDS011;13243;50.888;4.724;2023-05-16T21:52:38;9.10;;;2.38;;
25301;SDS011;13243;50.888;4.724;2023-05-16T21:57:41;12.85;;;2.70;;
25301;SDS011;13243;50.888;4.724;2023-05-16T22:02:43;7.10;;;2.50;;
25301;SDS011;13243;50.888;4.724;2023-05-16T22:07:45;13.52;;;2.53;;
25301;SDS011;13243;50.888;4.724;2023-05-16T22:12:47;8.95;;;2.33;;
25301;SDS011;13243;50.888;4.724;2023-05-16T22:17:49;6.78;;;3.03;;
25301;SDS011;13243;50.888;4.724;2023-05-16T22:22:51;9.20;;;2.92;;
25301;SDS011;13243;50.888;4.724;2023-05-16T22:27:53;12.70;;;2.95;;
25301;SDS011;13243;50.888;4.724;2023-05-16T22:32:55;7.97;;;2.80;;
25301;SDS011;13243;50.888;4.724;2023-05-16T22:37:57;7.22;;;2.65;;
25301;SDS011;13243;50.888;4.724;2023-05-16T22:42:59;11.10;;;2.40;;
25301;SDS011;13243;50.888;4.724;2023-05-16T22:48:02;7.63;;;2.38;;
25301;SDS011;13243;50.888;4.724;2023-05-16T22:53:04;7.80;;;2.17;;
25301;SDS011;13243;50.888;4.724;2023-05-16T22:58:05;5.35;;;2.22;;
25301;SDS011;13243;50.888;4.724;2023-05-16T23:03:07;5.93;;;2.45;;
25301;SDS011;13243;50.888;4.724;2023-05-16T23:08:09;7.97;;;2.35;;
25301;SDS011;13243;50.888;4.724;2023-05-16T23:13:11;5.50;;;2.45;;
25301;SDS011;13243;50.888;4.724;2023-05-16T23:18:13;8.25;;;2.80;;
25301;SDS011;13243;50.888;4.724;2023-05-16T23:23:15;6.68;;;2.45;;
25301;SDS011;13243;50.888;4.724;2023-05-16T23:28:17;9.65;;;2.67;;
25301;SDS011;13243;50.888;4.724;2023-05-16T23:33:19;8.05;;;2.20;;
25301;SDS011;13243;50.888;4.724;2023-05-16T23:38:22;5.30;;;2.15;;
25301;SDS011;13243;50.888;4.724;2023-05-16T23:43:25;8.85;;;2.38;;
25301;SDS011;13243;50.888;4.724;2023-05-16T23:48:27;5.47;;;2.22;;
25301;SDS011;13243;50.888;4.724;2023-05-16T23:53:29;4.40;;;2.00;;
25301;SDS011;13243;50.888;4.724;2023-05-16T23:58:33;8.40;;;2.40;;
